Airfield :







YOU CAN JOIN US ON...

 
LOGIN :

Register | Disclaimer

   EN    FR    IT 

 









Legend :    VFR   Marginal VFR   IFR   Intensive IFR   Very Intensive IFR
Visi :
Ceiling :
>= 8 km
>= 3000ft
5 to 8 km
1000 to 3000 ft
1500m to 5 km
500 to 1000 ft
800 to 1500m
200 to 500 ft
< 800m
< 200 ft
Symbols :   Thunderstorms  Fog  Heavy snow  Heavy precipitations  Wind > 20 kt






- Airport Elevation : 58 ft
- IATA code : POS


TTPP - Piarco Int.

CURRENT METAR :
  • 241800Z 13011KT 9999 VCSH SCT022 SCT045 30/22 Q1013 NOSIG RMK VCSH N

EXPIRED METARs :
  • 241700Z 13013KT 9999 VCSH SCT022 30/23 Q1013 NOSIG RMK JP N/ NE
  • 241600Z 12013KT 9999 VCSH SCT022 SCT045 30/22 Q1014 NOSIG RMK JP E/ NW

TAF TAF TTPP
Valid from the 24 at 18:00 until the 25 at 18:00 UTC


241600Z 2418/2518 13010KT 9999 SCT020 SCT042
TEMPO 2418/2422 9000 SHRA/VCSH SCT015 SCT042
BECMG 2423/2501 00000KT FEW018



MET'MAP, your aeronautical weather chart ! - Copyright ORBIFLY December 2007 - Disclaimer

ORBIFLY MET'MAP TEAM :

Programming & Development : Alexandra Zaïnal
Concept & original design : Baudouin d'Aumeries
Assistance for programming : Marc-Olivier Méhu
Technical & hardware support : Manuel Goepfert

Contact : metmap@orbifly.com




SOURCES & CREDITS :

   NOAA